sensor_id;sensor_type;location;lat;lon;timestamp;P1;durP1;ratioP1;P2;durP2;ratioP2
49015;SDS011;34830;44.064;12.566;2023-06-10T00:01:57;5.40;;;3.05;;
49015;SDS011;34830;44.064;12.566;2023-06-10T00:04:23;5.60;;;3.25;;
49015;SDS011;34830;44.064;12.566;2023-06-10T00:06:49;14.55;;;3.58;;
49015;SDS011;34830;44.064;12.566;2023-06-10T00:09:16;9.15;;;3.13;;
49015;SDS011;34830;44.064;12.566;2023-06-10T00:11:42;5.35;;;3.28;;
49015;SDS011;34830;44.064;12.566;2023-06-10T00:14:07;6.03;;;3.90;;
49015;SDS011;34830;44.064;12.566;2023-06-10T00:16:34;7.75;;;3.42;;
49015;SDS011;34830;44.064;12.566;2023-06-10T00:19:00;5.45;;;3.10;;
49015;SDS011;34830;44.064;12.566;2023-06-10T00:21:27;4.18;;;2.65;;
49015;SDS011;34830;44.064;12.566;2023-06-10T00:23:53;4.13;;;2.45;;
49015;SDS011;34830;44.064;12.566;2023-06-10T00:26:23;4.88;;;2.88;;
49015;SDS011;34830;44.064;12.566;2023-06-10T00:28:50;8.32;;;3.40;;
49015;SDS011;34830;44.064;12.566;2023-06-10T00:31:17;4.57;;;2.80;;
49015;SDS011;34830;44.064;12.566;2023-06-10T00:33:43;4.70;;;3.13;;
49015;SDS011;34830;44.064;12.566;2023-06-10T00:36:09;4.50;;;2.40;;
49015;SDS011;34830;44.064;12.566;2023-06-10T00:38:35;4.18;;;2.60;;
49015;SDS011;34830;44.064;12.566;2023-06-10T00:41:01;6.72;;;2.65;;
49015;SDS011;34830;44.064;12.566;2023-06-10T00:43:27;5.40;;;2.60;;
49015;SDS011;34830;44.064;12.566;2023-06-10T00:45:53;4.85;;;2.70;;
49015;SDS011;34830;44.064;12.566;2023-06-10T00:48:18;4.90;;;2.85;;
49015;SDS011;34830;44.064;12.566;2023-06-10T00:50:45;7.03;;;2.53;;
49015;SDS011;34830;44.064;12.566;2023-06-10T00:53:12;8.80;;;3.03;;
49015;SDS011;34830;44.064;12.566;2023-06-10T00:55:38;7.63;;;3.15;;
49015;SDS011;34830;44.064;12.566;2023-06-10T00:58:04;5.45;;;2.60;;
49015;SDS011;34830;44.064;12.566;2023-06-10T01:00:31;9.07;;;3.17;;
49015;SDS011;34830;44.064;12.566;2023-06-10T01:02:57;8.73;;;3.25;;
49015;SDS011;34830;44.064;12.566;2023-06-10T01:05:23;4.13;;;3.00;;
49015;SDS011;34830;44.064;12.566;2023-06-10T01:08:01;5.28;;;2.80;;
49015;SDS011;34830;44.064;12.566;2023-06-10T01:10:32;6.18;;;2.80;;
49015;SDS011;34830;44.064;12.566;2023-06-10T01:12:59;6.07;;;2.70;;
49015;SDS011;34830;44.064;12.566;2023-06-10T01:15:30;6.85;;;2.22;;
49015;SDS011;34830;44.064;12.566;2023-06-10T01:18:00;6.28;;;2.90;;
49015;SDS011;34830;44.064;12.566;2023-06-10T01:20:30;5.07;;;2.88;;
49015;SDS011;34830;44.064;12.566;2023-06-10T01:22:58;5.70;;;2.95;;
49015;SDS011;34830;44.064;12.566;2023-06-10T01:25:24;4.20;;;2.42;;
49015;SDS011;34830;44.064;12.566;2023-06-10T01:31:23;4.72;;;2.85;;
49015;SDS011;34830;44.064;12.566;2023-06-10T01:33:25;4.20;;;2.60;;
49015;SDS011;34830;44.064;12.566;2023-06-10T01:35:56;8.68;;;2.90;;
49015;SDS011;34830;44.064;12.566;2023-06-10T01:38:22;6.85;;;3.20;;
49015;SDS011;34830;44.064;12.566;2023-06-10T01:40:48;7.25;;;2.78;;
49015;SDS011;34830;44.064;12.566;2023-06-10T01:43:15;7.65;;;2.80;;
49015;SDS011;34830;44.064;12.566;2023-06-10T01:45:40;5.97;;;2.75;;
49015;SDS011;34830;44.064;12.566;2023-06-10T01:48:07;4.88;;;2.75;;
49015;SDS011;34830;44.064;12.566;2023-06-10T01:50:33;6.68;;;2.85;;
49015;SDS011;34830;44.064;12.566;2023-06-10T01:52:59;5.68;;;2.72;;
49015;SDS011;34830;44.064;12.566;2023-06-10T01:55:26;4.78;;;2.55;;
49015;SDS011;34830;44.064;12.566;2023-06-10T01:57:52;9.43;;;3.38;;
49015;SDS011;34830;44.064;12.566;2023-06-10T02:00:18;5.10;;;2.47;;
49015;SDS011;34830;44.064;12.566;2023-06-10T02:02:44;3.97;;;2.95;;
49015;SDS011;34830;44.064;12.566;2023-06-10T02:05:10;6.88;;;3.05;;
49015;SDS011;34830;44.064;12.566;2023-06-10T02:07:35;6.35;;;3.20;;
49015;SDS011;34830;44.064;12.566;2023-06-10T02:10:01;12.32;;;3.17;;
49015;SDS011;34830;44.064;12.566;2023-06-10T02:12:28;8.50;;;2.80;;
49015;SDS011;34830;44.064;12.566;2023-06-10T02:14:54;6.82;;;3.10;;
49015;SDS011;34830;44.064;12.566;2023-06-10T02:17:20;8.52;;;3.65;;
49015;SDS011;34830;44.064;12.566;2023-06-10T02:19:45;6.72;;;2.97;;
49015;SDS011;34830;44.064;12.566;2023-06-10T02:22:21;5.55;;;3.58;;
49015;SDS011;34830;44.064;12.566;2023-06-10T02:24:47;5.85;;;3.50;;
49015;SDS011;34830;44.064;12.566;2023-06-10T02:27:14;6.75;;;3.63;;
49015;SDS011;34830;44.064;12.566;2023-06-10T02:29:40;7.82;;;3.65;;
49015;SDS011;34830;44.064;12.566;2023-06-10T02:32:07;5.78;;;3.97;;
49015;SDS011;34830;44.064;12.566;2023-06-10T02:34:33;10.25;;;4.13;;
49015;SDS011;34830;44.064;12.566;2023-06-10T02:37:00;8.55;;;4.13;;
49015;SDS011;34830;44.064;12.566;2023-06-10T02:39:27;13.82;;;4.72;;
49015;SDS011;34830;44.064;12.566;2023-06-10T02:41:53;7.75;;;4.22;;
49015;SDS011;34830;44.064;12.566;2023-06-10T02:44:20;8.13;;;4.50;;
49015;SDS011;34830;44.064;12.566;2023-06-10T02:46:46;6.78;;;4.18;;
49015;SDS011;34830;44.064;12.566;2023-06-10T02:49:12;11.30;;;5.38;;
49015;SDS011;34830;44.064;12.566;2023-06-10T02:51:38;8.73;;;5.03;;
49015;SDS011;34830;44.064;12.566;2023-06-10T02:54:05;9.05;;;5.22;;
49015;SDS011;34830;44.064;12.566;2023-06-10T02:56:31;9.60;;;5.22;;
49015;SDS011;34830;44.064;12.566;2023-06-10T02:59:01;7.15;;;5.10;;
49015;SDS011;34830;44.064;12.566;2023-06-10T03:01:28;7.75;;;5.55;;
49015;SDS011;34830;44.064;12.566;2023-06-10T03:04:00;11.40;;;6.30;;
49015;SDS011;34830;44.064;12.566;2023-06-10T03:06:26;9.02;;;6.03;;
49015;SDS011;34830;44.064;12.566;2023-06-10T03:08:56;10.00;;;6.65;;
49015;SDS011;34830;44.064;12.566;2023-06-10T03:11:22;11.57;;;6.85;;
49015;SDS011;34830;44.064;12.566;2023-06-10T03:13:49;12.70;;;6.53;;
49015;SDS011;34830;44.064;12.566;2023-06-10T03:16:17;11.43;;;7.13;;
49015;SDS011;34830;44.064;12.566;2023-06-10T03:18:44;10.60;;;6.82;;
49015;SDS011;34830;44.064;12.566;2023-06-10T03:21:10;11.68;;;6.90;;
49015;SDS011;34830;44.064;12.566;2023-06-10T03:23:36;11.40;;;6.90;;
49015;SDS011;34830;44.064;12.566;2023-06-10T03:26:04;12.57;;;7.80;;
49015;SDS011;34830;44.064;12.566;2023-06-10T03:28:32;11.52;;;8.80;;
49015;SDS011;34830;44.064;12.566;2023-06-10T03:30:57;12.55;;;9.30;;
49015;SDS011;34830;44.064;12.566;2023-06-10T03:33:25;17.33;;;11.18;;
49015;SDS011;34830;44.064;12.566;2023-06-10T03:35:51;11.48;;;8.95;;
49015;SDS011;34830;44.064;12.566;2023-06-10T03:38:18;13.65;;;9.52;;
49015;SDS011;34830;44.064;12.566;2023-06-10T03:40:44;13.02;;;9.75;;
49015;SDS011;34830;44.064;12.566;2023-06-10T03:43:10;13.07;;;10.02;;
49015;SDS011;34830;44.064;12.566;2023-06-10T03:45:36;15.13;;;9.65;;
49015;SDS011;34830;44.064;12.566;2023-06-10T03:48:02;14.43;;;10.60;;
49015;SDS011;34830;44.064;12.566;2023-06-10T03:50:37;16.83;;;9.95;;
49015;SDS011;34830;44.064;12.566;2023-06-10T03:53:03;14.30;;;9.55;;
49015;SDS011;34830;44.064;12.566;2023-06-10T03:55:30;15.23;;;9.88;;
49015;SDS011;34830;44.064;12.566;2023-06-10T03:57:58;13.90;;;10.60;;
49015;SDS011;34830;44.064;12.566;2023-06-10T04:00:24;19.33;;;11.25;;
49015;SDS011;34830;44.064;12.566;2023-06-10T04:02:49;17.50;;;10.57;;
49015;SDS011;34830;44.064;12.566;2023-06-10T04:05:34;17.92;;;10.70;;
49015;SDS011;34830;44.064;12.566;2023-06-10T04:08:00;17.55;;;11.50;;
49015;SDS011;34830;44.064;12.566;2023-06-10T04:10:27;17.92;;;11.88;;
49015;SDS011;34830;44.064;12.566;2023-06-10T04:12:53;14.65;;;11.80;;
49015;SDS011;34830;44.064;12.566;2023-06-10T04:15:20;19.48;;;14.75;;
49015;SDS011;34830;44.064;12.566;2023-06-10T04:17:46;17.90;;;11.27;;
49015;SDS011;34830;44.064;12.566;2023-06-10T04:20:16;24.08;;;12.63;;
49015;SDS011;34830;44.064;12.566;2023-06-10T04:22:44;18.92;;;13.25;;
49015;SDS011;34830;44.064;12.566;2023-06-10T04:25:10;16.55;;;12.88;;
49015;SDS011;34830;44.064;12.566;2023-06-10T04:27:37;22.85;;;14.63;;
49015;SDS011;34830;44.064;12.566;2023-06-10T04:30:03;21.38;;;14.82;;
49015;SDS011;34830;44.064;12.566;2023-06-10T04:32:31;21.25;;;13.60;;
49015;SDS011;34830;44.064;12.566;2023-06-10T04:34:56;19.50;;;13.63;;
49015;SDS011;34830;44.064;12.566;2023-06-10T04:37:23;19.55;;;15.15;;
49015;SDS011;34830;44.064;12.566;2023-06-10T04:39:49;18.45;;;14.20;;
49015;SDS011;34830;44.064;12.566;2023-06-10T04:42:15;22.92;;;16.63;;
49015;SDS011;34830;44.064;12.566;2023-06-10T04:44:41;25.13;;;14.98;;
49015;SDS011;34830;44.064;12.566;2023-06-10T04:47:07;25.10;;;15.65;;
49015;SDS011;34830;44.064;12.566;2023-06-10T04:49:33;22.83;;;15.48;;
49015;SDS011;34830;44.064;12.566;2023-06-10T04:51:59;25.30;;;15.27;;
49015;SDS011;34830;44.064;12.566;2023-06-10T04:54:25;21.05;;;14.38;;
49015;SDS011;34830;44.064;12.566;2023-06-10T04:56:51;17.90;;;14.85;;
49015;SDS011;34830;44.064;12.566;2023-06-10T04:59:17;21.13;;;15.95;;
49015;SDS011;34830;44.064;12.566;2023-06-10T05:01:43;19.83;;;13.57;;
49015;SDS011;34830;44.064;12.566;2023-06-10T05:04:08;26.83;;;15.27;;
49015;SDS011;34830;44.064;12.566;2023-06-10T05:06:34;25.88;;;15.10;;
49015;SDS011;34830;44.064;12.566;2023-06-10T05:09:01;21.35;;;15.23;;
49015;SDS011;34830;44.064;12.566;2023-06-10T05:11:27;22.02;;;15.48;;
49015;SDS011;34830;44.064;12.566;2023-06-10T05:13:53;23.80;;;16.33;;
49015;SDS011;34830;44.064;12.566;2023-06-10T05:16:19;28.90;;;17.20;;
49015;SDS011;34830;44.064;12.566;2023-06-10T05:18:44;27.58;;;18.40;;
49015;SDS011;34830;44.064;12.566;2023-06-10T05:21:10;23.92;;;17.05;;
49015;SDS011;34830;44.064;12.566;2023-06-10T05:23:37;24.83;;;18.10;;
49015;SDS011;34830;44.064;12.566;2023-06-10T05:26:02;27.83;;;18.55;;
49015;SDS011;34830;44.064;12.566;2023-06-10T05:28:28;29.08;;;18.42;;
49015;SDS011;34830;44.064;12.566;2023-06-10T05:30:54;24.52;;;18.70;;
49015;SDS011;34830;44.064;12.566;2023-06-10T05:33:20;23.77;;;17.50;;
49015;SDS011;34830;44.064;12.566;2023-06-10T05:35:45;25.23;;;19.13;;
49015;SDS011;34830;44.064;12.566;2023-06-10T05:38:11;34.10;;;20.83;;
49015;SDS011;34830;44.064;12.566;2023-06-10T05:40:37;26.73;;;19.13;;
49015;SDS011;34830;44.064;12.566;2023-06-10T05:43:03;29.33;;;20.65;;
49015;SDS011;34830;44.064;12.566;2023-06-10T05:45:28;29.65;;;20.25;;
49015;SDS011;34830;44.064;12.566;2023-06-10T05:47:54;26.45;;;19.98;;
49015;SDS011;34830;44.064;12.566;2023-06-10T05:50:21;28.13;;;20.52;;
49015;SDS011;34830;44.064;12.566;2023-06-10T05:52:46;32.75;;;21.25;;
49015;SDS011;34830;44.064;12.566;2023-06-10T05:55:12;28.15;;;19.20;;
49015;SDS011;34830;44.064;12.566;2023-06-10T05:57:38;27.02;;;19.15;;
49015;SDS011;34830;44.064;12.566;2023-06-10T06:00:04;33.90;;;21.73;;
49015;SDS011;34830;44.064;12.566;2023-06-10T06:02:38;27.65;;;20.17;;
49015;SDS011;34830;44.064;12.566;2023-06-10T06:05:03;26.88;;;19.27;;
49015;SDS011;34830;44.064;12.566;2023-06-10T06:07:29;27.38;;;19.77;;
49015;SDS011;34830;44.064;12.566;2023-06-10T06:09:55;28.58;;;20.98;;
49015;SDS011;34830;44.064;12.566;2023-06-10T06:12:21;27.95;;;19.95;;
49015;SDS011;34830;44.064;12.566;2023-06-10T06:14:46;26.35;;;20.38;;
49015;SDS011;34830;44.064;12.566;2023-06-10T06:17:14;24.38;;;19.05;;
49015;SDS011;34830;44.064;12.566;2023-06-10T06:19:40;28.10;;;19.33;;
49015;SDS011;34830;44.064;12.566;2023-06-10T06:22:06;28.45;;;19.60;;
49015;SDS011;34830;44.064;12.566;2023-06-10T06:24:31;23.55;;;18.23;;
49015;SDS011;34830;44.064;12.566;2023-06-10T06:26:57;25.42;;;17.45;;
49015;SDS011;34830;44.064;12.566;2023-06-10T06:29:23;25.45;;;18.00;;
49015;SDS011;34830;44.064;12.566;2023-06-10T06:31:49;21.00;;;16.92;;
49015;SDS011;34830;44.064;12.566;2023-06-10T06:34:14;21.05;;;16.45;;
49015;SDS011;34830;44.064;12.566;2023-06-10T06:36:40;21.20;;;16.55;;
49015;SDS011;34830;44.064;12.566;2023-06-10T06:39:06;25.90;;;17.15;;
49015;SDS011;34830;44.064;12.566;2023-06-10T06:41:32;22.98;;;15.30;;
49015;SDS011;34830;44.064;12.566;2023-06-10T06:43:58;28.85;;;16.35;;
49015;SDS011;34830;44.064;12.566;2023-06-10T06:46:29;22.38;;;15.68;;
49015;SDS011;34830;44.064;12.566;2023-06-10T06:48:55;21.25;;;14.98;;
49015;SDS011;34830;44.064;12.566;2023-06-10T06:51:21;20.10;;;16.27;;
49015;SDS011;34830;44.064;12.566;2023-06-10T06:53:46;21.83;;;15.95;;
49015;SDS011;34830;44.064;12.566;2023-06-10T06:56:13;21.90;;;15.02;;
49015;SDS011;34830;44.064;12.566;2023-06-10T06:58:38;19.77;;;15.25;;
49015;SDS011;34830;44.064;12.566;2023-06-10T07:01:04;19.65;;;15.43;;
49015;SDS011;34830;44.064;12.566;2023-06-10T07:03:30;21.98;;;14.48;;
49015;SDS011;34830;44.064;12.566;2023-06-10T07:05:56;17.60;;;13.27;;
49015;SDS011;34830;44.064;12.566;2023-06-10T07:08:22;16.60;;;13.10;;
49015;SDS011;34830;44.064;12.566;2023-06-10T07:10:47;20.92;;;14.20;;
49015;SDS011;34830;44.064;12.566;2023-06-10T07:13:14;19.35;;;13.98;;
49015;SDS011;34830;44.064;12.566;2023-06-10T07:15:40;18.45;;;13.82;;
49015;SDS011;34830;44.064;12.566;2023-06-10T07:18:06;16.33;;;13.23;;
49015;SDS011;34830;44.064;12.566;2023-06-10T07:20:32;16.35;;;12.57;;
49015;SDS011;34830;44.064;12.566;2023-06-10T07:22:57;25.90;;;13.43;;
49015;SDS011;34830;44.064;12.566;2023-06-10T07:25:23;21.23;;;15.77;;
49015;SDS011;34830;44.064;12.566;2023-06-10T07:27:49;16.15;;;12.65;;
49015;SDS011;34830;44.064;12.566;2023-06-10T07:30:15;19.30;;;13.02;;
49015;SDS011;34830;44.064;12.566;2023-06-10T07:32:41;21.50;;;13.43;;
49015;SDS011;34830;44.064;12.566;2023-06-10T07:35:07;16.48;;;12.65;;
49015;SDS011;34830;44.064;12.566;2023-06-10T07:37:33;17.60;;;13.80;;
49015;SDS011;34830;44.064;12.566;2023-06-10T07:39:59;18.10;;;12.55;;
49015;SDS011;34830;44.064;12.566;2023-06-10T07:42:25;19.00;;;13.20;;
49015;SDS011;34830;44.064;12.566;2023-06-10T07:44:50;16.42;;;11.77;;
49015;SDS011;34830;44.064;12.566;2023-06-10T07:47:16;22.05;;;13.68;;
49015;SDS011;34830;44.064;12.566;2023-06-10T07:49:42;18.67;;;12.25;;
49015;SDS011;34830;44.064;12.566;2023-06-10T07:52:08;19.92;;;14.18;;
49015;SDS011;34830;44.064;12.566;2023-06-10T07:54:34;20.77;;;14.07;;
49015;SDS011;34830;44.064;12.566;2023-06-10T07:56:59;16.95;;;13.43;;
49015;SDS011;34830;44.064;12.566;2023-06-10T07:59:25;18.20;;;13.20;;
49015;SDS011;34830;44.064;12.566;2023-06-10T08:01:52;17.60;;;13.38;;
49015;SDS011;34830;44.064;12.566;2023-06-10T08:04:18;16.00;;;13.02;;
49015;SDS011;34830;44.064;12.566;2023-06-10T08:06:44;18.55;;;13.50;;
49015;SDS011;34830;44.064;12.566;2023-06-10T08:09:10;20.30;;;13.07;;
49015;SDS011;34830;44.064;12.566;2023-06-10T08:11:36;18.98;;;12.82;;
49015;SDS011;34830;44.064;12.566;2023-06-10T08:14:01;15.32;;;11.52;;
49015;SDS011;34830;44.064;12.566;2023-06-10T08:16:27;17.48;;;11.98;;
49015;SDS011;34830;44.064;12.566;2023-06-10T08:18:53;15.77;;;11.30;;
49015;SDS011;34830;44.064;12.566;2023-06-10T08:21:19;11.40;;;8.63;;
49015;SDS011;34830;44.064;12.566;2023-06-10T08:23:45;12.00;;;7.80;;
49015;SDS011;34830;44.064;12.566;2023-06-10T08:26:10;10.68;;;7.13;;
49015;SDS011;34830;44.064;12.566;2023-06-10T08:28:36;9.02;;;6.45;;
49015;SDS011;34830;44.064;12.566;2023-06-10T08:31:02;9.93;;;7.97;;
49015;SDS011;34830;44.064;12.566;2023-06-10T08:33:28;12.18;;;8.27;;
49015;SDS011;34830;44.064;12.566;2023-06-10T08:35:53;11.45;;;7.20;;
49015;SDS011;34830;44.064;12.566;2023-06-10T08:38:19;8.90;;;6.60;;
49015;SDS011;34830;44.064;12.566;2023-06-10T08:40:45;11.60;;;8.32;;
49015;SDS011;34830;44.064;12.566;2023-06-10T08:43:16;8.55;;;7.60;;
49015;SDS011;34830;44.064;12.566;2023-06-10T08:45:42;12.77;;;7.93;;
49015;SDS011;34830;44.064;12.566;2023-06-10T08:48:10;11.32;;;8.45;;
49015;SDS011;34830;44.064;12.566;2023-06-10T08:50:38;13.10;;;8.18;;
49015;SDS011;34830;44.064;12.566;2023-06-10T08:53:05;12.07;;;8.40;;
49015;SDS011;34830;44.064;12.566;2023-06-10T08:55:38;8.98;;;7.55;;
49015;SDS011;34830;44.064;12.566;2023-06-10T08:58:04;9.27;;;7.00;;
49015;SDS011;34830;44.064;12.566;2023-06-10T09:00:30;9.13;;;6.47;;
49015;SDS011;34830;44.064;12.566;2023-06-10T09:02:57;8.40;;;6.75;;
49015;SDS011;34830;44.064;12.566;2023-06-10T09:05:23;8.93;;;6.13;;
49015;SDS011;34830;44.064;12.566;2023-06-10T09:07:50;8.88;;;5.05;;
49015;SDS011;34830;44.064;12.566;2023-06-10T09:10:16;5.32;;;4.28;;
49015;SDS011;34830;44.064;12.566;2023-06-10T09:12:42;5.50;;;3.30;;
49015;SDS011;34830;44.064;12.566;2023-06-10T09:15:08;6.50;;;3.05;;
49015;SDS011;34830;44.064;12.566;2023-06-10T09:17:34;5.15;;;4.00;;
49015;SDS011;34830;44.064;12.566;2023-06-10T09:20:02;6.03;;;4.13;;
49015;SDS011;34830;44.064;12.566;2023-06-10T09:22:28;9.85;;;4.53;;
49015;SDS011;34830;44.064;12.566;2023-06-10T09:25:10;6.60;;;4.50;;
49015;SDS011;34830;44.064;12.566;2023-06-10T09:27:49;7.90;;;4.03;;
49015;SDS011;34830;44.064;12.566;2023-06-10T09:32:57;8.07;;;3.83;;
49015;SDS011;34830;44.064;12.566;2023-06-10T09:35:23;6.97;;;4.32;;
49015;SDS011;34830;44.064;12.566;2023-06-10T09:37:56;5.93;;;5.00;;
49015;SDS011;34830;44.064;12.566;2023-06-10T09:40:22;8.35;;;5.10;;
49015;SDS011;34830;44.064;12.566;2023-06-10T09:42:52;9.57;;;5.93;;
49015;SDS011;34830;44.064;12.566;2023-06-10T09:45:20;8.13;;;5.28;;
49015;SDS011;34830;44.064;12.566;2023-06-10T09:47:46;7.43;;;4.32;;
49015;SDS011;34830;44.064;12.566;2023-06-10T09:50:12;6.88;;;3.78;;
49015;SDS011;34830;44.064;12.566;2023-06-10T09:52:38;5.70;;;3.33;;
49015;SDS011;34830;44.064;12.566;2023-06-10T09:55:07;4.38;;;3.90;;
49015;SDS011;34830;44.064;12.566;2023-06-10T09:57:33;5.25;;;3.38;;
49015;SDS011;34830;44.064;12.566;2023-06-10T09:59:59;8.15;;;4.90;;
49015;SDS011;34830;44.064;12.566;2023-06-10T10:02:44;4.15;;;3.13;;
49015;SDS011;34830;44.064;12.566;2023-06-10T10:05:12;5.03;;;3.67;;
49015;SDS011;34830;44.064;12.566;2023-06-10T10:07:38;4.82;;;3.83;;
49015;SDS011;34830;44.064;12.566;2023-06-10T10:10:04;6.20;;;4.43;;
49015;SDS011;34830;44.064;12.566;2023-06-10T10:12:29;8.85;;;4.85;;
49015;SDS011;34830;44.064;12.566;2023-06-10T10:14:55;6.57;;;4.28;;
49015;SDS011;34830;44.064;12.566;2023-06-10T10:17:22;4.50;;;3.33;;
49015;SDS011;34830;44.064;12.566;2023-06-10T10:19:57;5.05;;;3.40;;
49015;SDS011;34830;44.064;12.566;2023-06-10T10:22:26;6.63;;;3.33;;
49015;SDS011;34830;44.064;12.566;2023-06-10T10:24:56;3.60;;;2.65;;
49015;SDS011;34830;44.064;12.566;2023-06-10T10:27:44;7.70;;;4.35;;
49015;SDS011;34830;44.064;12.566;2023-06-10T10:30:08;4.47;;;3.33;;
49015;SDS011;34830;44.064;12.566;2023-06-10T10:35:21;8.88;;;5.07;;
49015;SDS011;34830;44.064;12.566;2023-06-10T10:37:49;6.53;;;3.83;;
49015;SDS011;34830;44.064;12.566;2023-06-10T10:40:16;5.28;;;3.88;;
49015;SDS011;34830;44.064;12.566;2023-06-10T10:42:42;7.55;;;3.95;;
49015;SDS011;34830;44.064;12.566;2023-06-10T10:45:08;5.25;;;3.70;;
49015;SDS011;34830;44.064;12.566;2023-06-10T10:47:34;6.15;;;3.80;;
49015;SDS011;34830;44.064;12.566;2023-06-10T10:50:01;6.00;;;3.72;;
49015;SDS011;34830;44.064;12.566;2023-06-10T10:52:28;4.82;;;2.90;;
49015;SDS011;34830;44.064;12.566;2023-06-10T10:55:14;4.50;;;2.72;;
49015;SDS011;34830;44.064;12.566;2023-06-10T10:57:40;4.97;;;2.70;;
49015;SDS011;34830;44.064;12.566;2023-06-10T11:00:06;6.45;;;3.53;;
49015;SDS011;34830;44.064;12.566;2023-06-10T11:02:42;4.97;;;2.80;;
49015;SDS011;34830;44.064;12.566;2023-06-10T11:05:18;4.97;;;3.20;;
49015;SDS011;34830;44.064;12.566;2023-06-10T11:07:54;4.78;;;2.92;;
49015;SDS011;34830;44.064;12.566;2023-06-10T11:10:28;4.15;;;2.85;;
49015;SDS011;34830;44.064;12.566;2023-06-10T11:12:54;4.70;;;3.10;;
49015;SDS011;34830;44.064;12.566;2023-06-10T11:15:29;4.45;;;3.22;;
49015;SDS011;34830;44.064;12.566;2023-06-10T11:18:11;5.85;;;3.65;;
49015;SDS011;34830;44.064;12.566;2023-06-10T11:31:00;4.78;;;3.40;;
49015;SDS011;34830;44.064;12.566;2023-06-10T11:33:26;3.67;;;2.72;;
49015;SDS011;34830;44.064;12.566;2023-06-10T11:35:52;4.25;;;2.60;;
49015;SDS011;34830;44.064;12.566;2023-06-10T11:38:18;5.80;;;2.83;;
49015;SDS011;34830;44.064;12.566;2023-06-10T11:40:53;2.85;;;2.10;;
49015;SDS011;34830;44.064;12.566;2023-06-10T11:43:19;3.53;;;2.40;;
49015;SDS011;34830;44.064;12.566;2023-06-10T11:45:45;3.92;;;2.25;;
49015;SDS011;34830;44.064;12.566;2023-06-10T11:48:12;4.10;;;2.47;;
49015;SDS011;34830;44.064;12.566;2023-06-10T11:50:38;4.78;;;3.03;;
49015;SDS011;34830;44.064;12.566;2023-06-10T11:53:04;9.10;;;3.10;;
49015;SDS011;34830;44.064;12.566;2023-06-10T11:55:43;4.18;;;2.47;;
49015;SDS011;34830;44.064;12.566;2023-06-10T11:58:19;4.25;;;2.65;;
49015;SDS011;34830;44.064;12.566;2023-06-10T12:00:46;3.70;;;2.58;;
49015;SDS011;34830;44.064;12.566;2023-06-10T12:03:12;6.60;;;2.70;;
49015;SDS011;34830;44.064;12.566;2023-06-10T12:05:37;6.25;;;3.17;;
49015;SDS011;34830;44.064;12.566;2023-06-10T12:08:10;4.32;;;3.08;;
49015;SDS011;34830;44.064;12.566;2023-06-10T12:10:40;4.53;;;2.70;;
49015;SDS011;34830;44.064;12.566;2023-06-10T12:13:06;2.78;;;2.13;;
49015;SDS011;34830;44.064;12.566;2023-06-10T12:15:32;4.32;;;2.90;;
49015;SDS011;34830;44.064;12.566;2023-06-10T12:17:57;2.90;;;1.80;;
49015;SDS011;34830;44.064;12.566;2023-06-10T12:20:24;3.22;;;2.10;;
49015;SDS011;34830;44.064;12.566;2023-06-10T12:22:50;5.63;;;2.15;;
49015;SDS011;34830;44.064;12.566;2023-06-10T12:25:16;2.88;;;2.00;;
49015;SDS011;34830;44.064;12.566;2023-06-10T12:27:51;3.28;;;2.10;;
49015;SDS011;34830;44.064;12.566;2023-06-10T12:30:18;2.58;;;1.58;;
49015;SDS011;34830;44.064;12.566;2023-06-10T12:32:45;2.78;;;2.13;;
49015;SDS011;34830;44.064;12.566;2023-06-10T12:35:12;5.28;;;2.90;;
49015;SDS011;34830;44.064;12.566;2023-06-10T12:37:38;4.60;;;2.70;;
49015;SDS011;34830;44.064;12.566;2023-06-10T12:40:04;3.05;;;2.38;;
49015;SDS011;34830;44.064;12.566;2023-06-10T12:42:37;3.47;;;1.95;;
49015;SDS011;34830;44.064;12.566;2023-06-10T12:45:03;3.13;;;1.80;;
49015;SDS011;34830;44.064;12.566;2023-06-10T12:47:30;4.30;;;2.80;;
49015;SDS011;34830;44.064;12.566;2023-06-10T12:49:58;4.43;;;3.05;;
49015;SDS011;34830;44.064;12.566;2023-06-10T12:52:24;3.38;;;2.40;;
49015;SDS011;34830;44.064;12.566;2023-06-10T12:54:50;6.00;;;3.35;;
49015;SDS011;34830;44.064;12.566;2023-06-10T12:57:17;5.15;;;2.40;;
49015;SDS011;34830;44.064;12.566;2023-06-10T12:59:43;5.47;;;3.40;;
49015;SDS011;34830;44.064;12.566;2023-06-10T13:02:15;3.78;;;2.80;;
49015;SDS011;34830;44.064;12.566;2023-06-10T13:04:43;5.50;;;3.53;;
49015;SDS011;34830;44.064;12.566;2023-06-10T13:07:09;4.80;;;3.28;;
49015;SDS011;34830;44.064;12.566;2023-06-10T13:09:36;14.70;;;4.85;;
49015;SDS011;34830;44.064;12.566;2023-06-10T13:12:02;5.88;;;3.40;;
49015;SDS011;34830;44.064;12.566;2023-06-10T13:14:28;5.40;;;3.17;;
49015;SDS011;34830;44.064;12.566;2023-06-10T13:16:54;4.13;;;3.00;;
49015;SDS011;34830;44.064;12.566;2023-06-10T13:19:20;4.85;;;3.53;;
49015;SDS011;34830;44.064;12.566;2023-06-10T13:21:49;4.20;;;3.28;;
49015;SDS011;34830;44.064;12.566;2023-06-10T13:24:15;4.15;;;2.83;;
49015;SDS011;34830;44.064;12.566;2023-06-10T13:26:41;5.05;;;3.17;;
49015;SDS011;34830;44.064;12.566;2023-06-10T13:29:06;6.05;;;3.15;;
49015;SDS011;34830;44.064;12.566;2023-06-10T13:31:33;4.25;;;3.03;;
49015;SDS011;34830;44.064;12.566;2023-06-10T13:33:59;4.63;;;3.15;;
49015;SDS011;34830;44.064;12.566;2023-06-10T13:36:25;4.50;;;3.25;;
49015;SDS011;34830;44.064;12.566;2023-06-10T13:38:51;4.57;;;3.33;;
49015;SDS011;34830;44.064;12.566;2023-06-10T13:41:16;5.35;;;3.15;;
49015;SDS011;34830;44.064;12.566;2023-06-10T13:43:42;4.10;;;2.90;;
49015;SDS011;34830;44.064;12.566;2023-06-10T13:46:08;6.90;;;2.85;;
49015;SDS011;34830;44.064;12.566;2023-06-10T13:48:34;7.55;;;2.95;;
49015;SDS011;34830;44.064;12.566;2023-06-10T13:51:00;5.88;;;2.53;;
49015;SDS011;34830;44.064;12.566;2023-06-10T13:53:26;6.40;;;2.78;;
49015;SDS011;34830;44.064;12.566;2023-06-10T13:55:52;3.95;;;2.75;;
49015;SDS011;34830;44.064;12.566;2023-06-10T13:58:17;3.80;;;2.38;;
49015;SDS011;34830;44.064;12.566;2023-06-10T14:00:43;3.90;;;2.45;;
49015;SDS011;34830;44.064;12.566;2023-06-10T14:03:09;7.53;;;3.17;;
49015;SDS011;34830;44.064;12.566;2023-06-10T14:05:35;5.35;;;4.65;;
49015;SDS011;34830;44.064;12.566;2023-06-10T14:08:01;9.38;;;6.03;;
49015;SDS011;34830;44.064;12.566;2023-06-10T14:10:26;6.90;;;4.70;;
49015;SDS011;34830;44.064;12.566;2023-06-10T14:12:52;6.40;;;4.32;;
49015;SDS011;34830;44.064;12.566;2023-06-10T14:15:19;5.78;;;3.47;;
49015;SDS011;34830;44.064;12.566;2023-06-10T14:17:44;8.95;;;6.53;;
49015;SDS011;34830;44.064;12.566;2023-06-10T14:20:10;4.97;;;4.45;;
49015;SDS011;34830;44.064;12.566;2023-06-10T14:22:36;5.55;;;3.90;;
49015;SDS011;34830;44.064;12.566;2023-06-10T14:25:02;5.28;;;4.60;;
49015;SDS011;34830;44.064;12.566;2023-06-10T14:27:28;6.28;;;4.68;;
49015;SDS011;34830;44.064;12.566;2023-06-10T14:29:54;6.18;;;3.80;;
49015;SDS011;34830;44.064;12.566;2023-06-10T14:32:19;4.50;;;2.80;;
49015;SDS011;34830;44.064;12.566;2023-06-10T14:34:45;3.85;;;3.45;;
49015;SDS011;34830;44.064;12.566;2023-06-10T14:37:12;7.60;;;3.22;;
49015;SDS011;34830;44.064;12.566;2023-06-10T14:39:38;5.18;;;3.03;;
49015;SDS011;34830;44.064;12.566;2023-06-10T14:42:04;12.95;;;11.68;;
49015;SDS011;34830;44.064;12.566;2023-06-10T14:44:30;7.20;;;6.47;;